Time;durP1;ratioP1;P1;durP2;ratioP2;P2;SDS_P1;SDS_P2;PMS_P1;PMS_P2;Temp;Humidity;BMP_temperature;BMP_pressure;BME280_temperature;BME280_humidity;BME280_pressure;Samples;Min_cycle;Max_cycle;Signal;HPM_P1;HPM_P2
2024/02/14 00:01:41;;;;;;;;;;;;;;;;;;5003545;28;89486;-75
2024/02/14 00:04:07;;;;;;;;;;;;;;;;;;4991012;28;89464;-76
2024/02/14 00:06:36;;;;;;;;;;;;;;;;;;4990507;28;89783;-74
2024/02/14 00:09:01;;;;;;;;;;;;;;;;;;4989968;28;89294;-74
2024/02/14 00:11:26;;;;;;;;;;;;;;;;;;4990740;28;89554;-74
2024/02/14 00:13:51;;;;;;;;;;;;;;;;;;4990430;28;89466;-75
2024/02/14 00:16:17;;;;;;;;;;;;;;;;;;4990367;28;89060;-75
2024/02/14 00:18:42;;;;;;;;;;;;;;;;;;4990274;28;89523;-76
2024/02/14 00:21:07;;;;;;;;;;;;;;;;;;4993877;28;89437;-75
2024/02/14 00:23:32;;;;;;;;;;;;;;;;;;4990512;28;90411;-74
2024/02/14 00:25:57;;;;;;;;;;;;;;;;;;4990677;28;90483;-75
2024/02/14 00:28:26;;;;;;;;;;;;;;;;;;4990794;28;90449;-74
2024/02/14 00:30:51;;;;;;;;;;;;;;;;;;4988997;28;92064;-74
2024/02/14 00:33:17;;;;;;;;;;;;;;;;;;4989215;28;89380;-75
2024/02/14 00:35:42;;;;;;;;;;;;;;;;;;4989991;28;89942;-75
2024/02/14 00:38:08;;;;;;;;;;;;;;;;;;4989889;28;89573;-75
2024/02/14 00:40:33;;;;;;;;;;;;;;;;;;4989773;28;89785;-75
2024/02/14 00:42:58;;;;;;;;;;;;;;;;;;4992988;28;89623;-75
2024/02/14 00:45:24;;;;;;;;;;;;;;;;;;4990289;28;89917;-75
2024/02/14 00:47:49;;;;;;;;;;;;;;;;;;4990596;28;88991;-75
2024/02/14 00:50:14;;;;;;;;;;;;;;;;;;4990450;28;89740;-74
2024/02/14 00:52:39;;;;;;;;;;;;;;;;;;4990214;28;89180;-75
2024/02/14 00:55:04;;;;;;;;;;;;;;;;;;4995294;28;89141;-75
2024/02/14 00:57:30;;;;;;;;;;;;;;;;;;5009804;28;89538;-74
2024/02/14 00:59:56;;;;;;;;;;;;;;;;;;5009699;28;89649;-74
2024/02/14 01:02:21;;;;;;;;;;;;;;;;;;4996909;28;89062;-74
2024/02/14 01:04:47;;;;;;;;;;;;;;;;;;4992761;28;89554;-75
2024/02/14 01:07:12;;;;;;;;;;;;;;;;;;4990402;28;89550;-75
2024/02/14 01:09:37;;;;;;;;;;;;;;;;;;4990168;28;89645;-73
2024/02/14 01:12:02;;;;;;;;;;;;;;;;;;4990009;28;89707;-74
2024/02/14 01:14:28;;;;;;;;;;;;;;;;;;4989911;28;89582;-75
2024/02/14 01:16:53;;;;;;;;;;;;;;;;;;4989561;28;89500;-75
2024/02/14 01:19:19;;;;;;;;;;;;;;;;;;4990150;28;90353;-74
2024/02/14 01:21:48;;;;;;;;;;;;;;;;;;4989231;28;89279;-75
2024/02/14 01:24:13;;;;;;;;;;;;;;;;;;4989970;28;90635;-75
2024/02/14 01:26:38;;;;;;;;;;;;;;;;;;4992699;28;90359;-74
2024/02/14 01:29:05;;;;;;;;;;;;;;;;;;4989831;28;90517;-76
2024/02/14 01:31:31;;;;;;;;;;;;;;;;;;4989465;28;89871;-75
2024/02/14 01:33:57;;;;;;;;;;;;;;;;;;4988054;28;89416;-76
2024/02/14 01:36:22;;;;;;;;;;;;;;;;;;4989887;28;90646;-76
2024/02/14 01:38:47;;;;;;;;;;;;;;;;;;4989213;28;89427;-74
2024/02/14 01:41:13;;;;;;;;;;;;;;;;;;4989334;28;89054;-76
2024/02/14 01:43:38;;;;;;;;;;;;;;;;;;4989613;28;90627;-74
2024/02/14 01:46:07;;;;;;;;;;;;;;;;;;4991125;28;89765;-73
2024/02/14 01:48:35;;;;;;;;;;;;;;;;;;4989669;28;89562;-74
2024/02/14 01:51:02;;;;;;;;;;;;;;;;;;4988849;28;89619;-74
2024/02/14 01:53:30;;;;;;;;;;;;;;;;;;4989180;28;89023;-76
2024/02/14 01:55:55;;;;;;;;;;;;;;;;;;4988872;28;90092;-76
2024/02/14 01:58:20;;;;;;;;;;;;;;;;;;4989097;28;89691;-75
2024/02/14 02:00:46;;;;;;;;;;;;;;;;;;4989195;28;89504;-74
2024/02/14 02:03:11;;;;;;;;;;;;;;;;;;4989050;28;89505;-76
2024/02/14 02:05:36;;;;;;;;;;;;;;;;;;4988872;28;89659;-76
2024/02/14 02:08:02;;;;;;;;;;;;;;;;;;4992201;28;89355;-76
2024/02/14 02:10:29;;;;;;;;;;;;;;;;;;4988759;28;89458;-76
2024/02/14 02:13:00;;;;;;;;;;;;;;;;;;4989578;28;89582;-73
2024/02/14 02:15:26;;;;;;;;;;;;;;;;;;4988957;28;89466;-75
2024/02/14 02:17:53;;;;;;;;;;;;;;;;;;4988748;28;89660;-76
2024/02/14 02:20:18;;;;;;;;;;;;;;;;;;4987555;28;89117;-76
2024/02/14 02:22:49;;;;;;;;;;;;;;;;;;4989025;28;90511;-75
2024/02/14 02:25:15;;;;;;;;;;;;;;;;;;4988747;28;90048;-76
2024/02/14 02:27:40;;;;;;;;;;;;;;;;;;4988781;28;89119;-76
2024/02/14 02:30:06;;;;;;;;;;;;;;;;;;4991948;28;90025;-74
2024/02/14 02:32:31;;;;;;;;;;;;;;;;;;4988761;28;89016;-75
2024/02/14 02:34:57;;;;;;;;;;;;;;;;;;4988104;28;89553;-75
2024/02/14 02:37:23;;;;;;;;;;;;;;;;;;4988955;28;90183;-75
2024/02/14 02:39:48;;;;;;;;;;;;;;;;;;4988321;28;88992;-76
2024/02/14 02:42:14;;;;;;;;;;;;;;;;;;4988665;28;89569;-75
2024/02/14 02:44:39;;;;;;;;;;;;;;;;;;5020301;28;92319;-74
2024/02/14 02:47:04;;;;;;;;;;;;;;;;;;4987115;28;89024;-74
2024/02/14 02:49:30;;;;;;;;;;;;;;;;;;4988405;28;90452;-77
2024/02/14 02:51:55;;;;;;;;;;;;;;;;;;4991899;28;89645;-75
2024/02/14 02:54:22;;;;;;;;;;;;;;;;;;4987025;28;92211;-76
2024/02/14 02:56:47;;;;;;;;;;;;;;;;;;4987843;28;90041;-74
2024/02/14 02:59:13;;;;;;;;;;;;;;;;;;4988233;28;89729;-74
2024/02/14 03:01:40;;;;;;;;;;;;;;;;;;4987820;28;89756;-76
2024/02/14 03:04:05;;;;;;;;;;;;;;;;;;5004966;28;90390;-74
2024/02/14 03:06:30;;;;;;;;;;;;;;;;;;5008405;28;89344;-74
2024/02/14 03:08:57;;;;;;;;;;;;;;;;;;5008441;28;89590;-74
2024/02/14 03:11:22;;;;;;;;;;;;;;;;;;5006885;28;91887;-75
2024/02/14 03:13:48;;;;;;;;;;;;;;;;;;5010875;28;89491;-73
2024/02/14 03:16:14;;;;;;;;;;;;;;;;;;5007930;28;89792;-73
2024/02/14 03:18:40;;;;;;;;;;;;;;;;;;5008255;28;89048;-73
2024/02/14 03:21:06;;;;;;;;;;;;;;;;;;5008233;28;90090;-74
2024/02/14 03:23:31;;;;;;;;;;;;;;;;;;5007851;28;90171;-73
2024/02/14 03:25:56;;;;;;;;;;;;;;;;;;5008286;28;90132;-74
2024/02/14 03:28:22;;;;;;;;;;;;;;;;;;5006939;28;92518;-74
2024/02/14 03:30:47;;;;;;;;;;;;;;;;;;5007682;28;89111;-74
2024/02/14 03:33:13;;;;;;;;;;;;;;;;;;5007804;28;89302;-75
2024/02/14 03:35:38;;;;;;;;;;;;;;;;;;5010463;28;89532;-74
2024/02/14 03:38:03;;;;;;;;;;;;;;;;;;5007903;28;89701;-74
2024/02/14 03:40:30;;;;;;;;;;;;;;;;;;5008067;28;89735;-75
2024/02/14 03:42:55;;;;;;;;;;;;;;;;;;5007771;28;89165;-74
2024/02/14 03:45:20;;;;;;;;;;;;;;;;;;5008331;28;89668;-75
2024/02/14 03:47:46;;;;;;;;;;;;;;;;;;5006334;28;92965;-76
2024/02/14 03:50:11;;;;;;;;;;;;;;;;;;5007751;28;90248;-75
2024/02/14 03:52:36;;;;;;;;;;;;;;;;;;5007643;28;89070;-75
2024/02/14 03:55:02;;;;;;;;;;;;;;;;;;5010342;28;90904;-76
2024/02/14 03:57:30;;;;;;;;;;;;;;;;;;5007722;28;89050;-74
2024/02/14 03:59:56;;;;;;;;;;;;;;;;;;5008118;28;89729;-74
2024/02/14 04:02:23;;;;;;;;;;;;;;;;;;4994180;28;89742;-75
2024/02/14 04:04:48;;;;;;;;;;;;;;;;;;4987909;28;89359;-76
2024/02/14 04:07:13;;;;;;;;;;;;;;;;;;4987838;28;89901;-75
2024/02/14 04:09:38;;;;;;;;;;;;;;;;;;4989439;28;89197;-75
2024/02/14 04:12:04;;;;;;;;;;;;;;;;;;4990248;28;89489;-76
2024/02/14 04:14:29;;;;;;;;;;;;;;;;;;4990695;28;89529;-76
2024/02/14 04:16:54;;;;;;;;;;;;;;;;;;4991455;28;91846;-77
2024/02/14 04:19:20;;;;;;;;;;;;;;;;;;4985218;28;91021;-76
2024/02/14 04:21:45;;;;;;;;;;;;;;;;;;4987934;28;89678;-74
2024/02/14 04:24:11;;;;;;;;;;;;;;;;;;4988912;28;89563;-75
2024/02/14 04:26:36;;;;;;;;;;;;;;;;;;5021159;28;90950;-74
2024/02/14 04:29:02;;;;;;;;;;;;;;;;;;4988298;28;89463;-74
2024/02/14 04:31:29;;;;;;;;;;;;;;;;;;4989179;28;89088;-75
2024/02/14 04:33:54;;;;;;;;;;;;;;;;;;4989084;28;89465;-76
2024/02/14 04:36:20;;;;;;;;;;;;;;;;;;4988573;28;89893;-75
2024/02/14 04:38:46;;;;;;;;;;;;;;;;;;4992492;28;89425;-74
2024/02/14 04:41:11;;;;;;;;;;;;;;;;;;4989053;28;89585;-75
2024/02/14 04:43:36;;;;;;;;;;;;;;;;;;4988914;28;88984;-74
2024/02/14 04:46:06;;;;;;;;;;;;;;;;;;4988677;28;89537;-74
2024/02/14 04:48:31;;;;;;;;;;;;;;;;;;4988741;28;89393;-75
2024/02/14 04:50:57;;;;;;;;;;;;;;;;;;4989157;28;89494;-74
2024/02/14 04:53:22;;;;;;;;;;;;;;;;;;4989308;28;89630;-74
2024/02/14 04:55:47;;;;;;;;;;;;;;;;;;5020661;28;91679;-76
2024/02/14 04:58:12;;;;;;;;;;;;;;;;;;4988770;28;90461;-75
2024/02/14 05:00:38;;;;;;;;;;;;;;;;;;4991257;28;89615;-74
2024/02/14 05:03:03;;;;;;;;;;;;;;;;;;4988352;28;89145;-75
2024/02/14 05:05:29;;;;;;;;;;;;;;;;;;5020957;27;89805;-76
2024/02/14 05:07:54;;;;;;;;;;;;;;;;;;4991974;28;89350;-74
2024/02/14 05:10:19;;;;;;;;;;;;;;;;;;4988449;28;89001;-74
2024/02/14 05:12:45;;;;;;;;;;;;;;;;;;4989215;28;89150;-74
2024/02/14 05:15:12;;;;;;;;;;;;;;;;;;4988901;28;89229;-75
2024/02/14 05:17:37;;;;;;;;;;;;;;;;;;4988461;28;89058;-75
2024/02/14 05:20:03;;;;;;;;;;;;;;;;;;4988613;28;89738;-74
2024/02/14 05:22:28;;;;;;;;;;;;;;;;;;4991171;28;89176;-75
2024/02/14 05:24:53;;;;;;;;;;;;;;;;;;4988204;28;89673;-75
2024/02/14 05:27:19;;;;;;;;;;;;;;;;;;4988386;28;89565;-76
2024/02/14 05:29:44;;;;;;;;;;;;;;;;;;4988404;28;89916;-76
2024/02/14 05:32:09;;;;;;;;;;;;;;;;;;4988185;28;89171;-76
2024/02/14 05:34:35;;;;;;;;;;;;;;;;;;4988003;28;89223;-76
2024/02/14 05:37:00;;;;;;;;;;;;;;;;;;5020250;28;89226;-76
2024/02/14 05:39:25;;;;;;;;;;;;;;;;;;4988414;28;89483;-76
2024/02/14 05:41:51;;;;;;;;;;;;;;;;;;4990315;28;89184;-75
2024/02/14 05:44:16;;;;;;;;;;;;;;;;;;4988149;28;89450;-76
2024/02/14 05:46:41;;;;;;;;;;;;;;;;;;4987878;28;90376;-76
2024/02/14 05:49:06;;;;;;;;;;;;;;;;;;4987561;28;89450;-74
2024/02/14 05:51:31;;;;;;;;;;;;;;;;;;4987961;28;89126;-76
2024/02/14 05:53:57;;;;;;;;;;;;;;;;;;4988113;28;89754;-75
2024/02/14 05:56:22;;;;;;;;;;;;;;;;;;4986281;28;89814;-76
2024/02/14 05:58:47;;;;;;;;;;;;;;;;;;4988028;28;90751;-76
2024/02/14 06:01:12;;;;;;;;;;;;;;;;;;4986843;28;90876;-76
2024/02/14 06:03:38;;;;;;;;;;;;;;;;;;4990684;28;89622;-75
2024/02/14 06:06:03;;;;;;;;;;;;;;;;;;4987332;28;90112;-76
2024/02/14 06:08:28;;;;;;;;;;;;;;;;;;4987990;28;89438;-74
2024/02/14 06:10:54;;;;;;;;;;;;;;;;;;4982620;28;89569;-76
2024/02/14 06:13:19;;;;;;;;;;;;;;;;;;4986831;28;89611;-76
2024/02/14 06:15:45;;;;;;;;;;;;;;;;;;4987684;28;90403;-75
2024/02/14 06:18:10;;;;;;;;;;;;;;;;;;4986949;28;90144;-74
2024/02/14 06:20:36;;;;;;;;;;;;;;;;;;4986485;28;89329;-75
2024/02/14 06:23:01;;;;;;;;;;;;;;;;;;4987283;28;89345;-74
2024/02/14 06:25:26;;;;;;;;;;;;;;;;;;4990503;28;89542;-76
2024/02/14 06:27:52;;;;;;;;;;;;;;;;;;4987641;28;89914;-75
2024/02/14 06:30:17;;;;;;;;;;;;;;;;;;4985989;28;90705;-74
2024/02/14 06:32:42;;;;;;;;;;;;;;;;;;4986269;28;90230;-76
2024/02/14 06:35:07;;;;;;;;;;;;;;;;;;4986744;28;90464;-75
2024/02/14 06:37:32;;;;;;;;;;;;;;;;;;4986887;28;90189;-75
2024/02/14 06:39:58;;;;;;;;;;;;;;;;;;4986898;28;89300;-74
2024/02/14 06:42:23;;;;;;;;;;;;;;;;;;4987082;28;89159;-76
2024/02/14 06:44:49;;;;;;;;;;;;;;;;;;4987458;28;89056;-76
2024/02/14 06:47:14;;;;;;;;;;;;;;;;;;5022082;28;90260;-75
2024/02/14 06:49:40;;;;;;;;;;;;;;;;;;4987059;28;89515;-76
2024/02/14 06:52:05;;;;;;;;;;;;;;;;;;4986901;28;89643;-74
2024/02/14 06:54:30;;;;;;;;;;;;;;;;;;4987202;28;89540;-74
2024/02/14 06:56:55;;;;;;;;;;;;;;;;;;4987020;28;89435;-74
2024/02/14 06:59:21;;;;;;;;;;;;;;;;;;5018469;28;91793;-76
2024/02/14 07:01:46;;;;;;;;;;;;;;;;;;4986709;28;89413;-75
2024/02/14 07:04:11;;;;;;;;;;;;;;;;;;5020915;27;91458;-76
2024/02/14 07:06:36;;;;;;;;;;;;;;;;;;4988965;28;90992;-76
2024/02/14 07:09:02;;;;;;;;;;;;;;;;;;4989690;28;89087;-74
2024/02/14 07:11:27;;;;;;;;;;;;;;;;;;4986581;28;90928;-75
2024/02/14 07:13:52;;;;;;;;;;;;;;;;;;4986907;28;89945;-75
2024/02/14 07:16:17;;;;;;;;;;;;;;;;;;4986372;28;89491;-74
2024/02/14 07:18:43;;;;;;;;;;;;;;;;;;4986886;28;91076;-76
2024/02/14 07:21:08;;;;;;;;;;;;;;;;;;5018312;28;89597;-76
2024/02/14 07:23:36;;;;;;;;;;;;;;;;;;4986624;28;88986;-73
2024/02/14 07:26:01;;;;;;;;;;;;;;;;;;4986305;28;89463;-75
2024/02/14 07:28:26;;;;;;;;;;;;;;;;;;5018778;28;89144;-77
2024/02/14 07:30:52;;;;;;;;;;;;;;;;;;4987885;28;89793;-77
2024/02/14 07:33:17;;;;;;;;;;;;;;;;;;4986412;28;89473;-77
2024/02/14 07:35:42;;;;;;;;;;;;;;;;;;4986334;28;90812;-75
2024/02/14 07:38:08;;;;;;;;;;;;;;;;;;4988323;28;90309;-76
2024/02/14 07:40:33;;;;;;;;;;;;;;;;;;4986925;28;89849;-75
2024/02/14 07:42:59;;;;;;;;;;;;;;;;;;4985713;28;90199;-76
2024/02/14 07:45:24;;;;;;;;;;;;;;;;;;4989867;28;89198;-76
2024/02/14 07:47:50;;;;;;;;;;;;;;;;;;4990118;28;89345;-76
2024/02/14 07:50:15;;;;;;;;;;;;;;;;;;4991987;28;89355;-76
2024/02/14 07:52:42;;;;;;;;;;;;;;;;;;5021972;28;89894;-76
2024/02/14 07:55:07;;;;;;;;;;;;;;;;;;5021937;28;90756;-76
2024/02/14 07:57:33;;;;;;;;;;;;;;;;;;4989754;28;89789;-76
2024/02/14 07:59:58;;;;;;;;;;;;;;;;;;4990021;28;89979;-76
2024/02/14 08:02:23;;;;;;;;;;;;;;;;;;4987935;28;93352;-76
2024/02/14 08:04:48;;;;;;;;;;;;;;;;;;4989715;28;90607;-76
2024/02/14 08:07:14;;;;;;;;;;;;;;;;;;4989400;28;89546;-76
2024/02/14 08:09:40;;;;;;;;;;;;;;;;;;4989564;28;89608;-76
2024/02/14 08:12:05;;;;;;;;;;;;;;;;;;4991529;28;89270;-77
2024/02/14 08:14:31;;;;;;;;;;;;;;;;;;4989262;28;89458;-76
2024/02/14 08:16:56;;;;;;;;;;;;;;;;;;4998596;28;90983;-76
2024/02/14 08:19:21;;;;;;;;;;;;;;;;;;4999630;28;89618;-76
2024/02/14 08:21:46;;;;;;;;;;;;;;;;;;4989167;28;89627;-76
2024/02/14 08:24:12;;;;;;;;;;;;;;;;;;4989032;28;89667;-77
2024/02/14 08:26:37;;;;;;;;;;;;;;;;;;4988575;28;89537;-76
2024/02/14 08:29:04;;;;;;;;;;;;;;;;;;4989448;28;89854;-76
2024/02/14 08:31:29;;;;;;;;;;;;;;;;;;4989692;28;89998;-75
2024/02/14 08:33:54;;;;;;;;;;;;;;;;;;5024397;28;89203;-76
2024/02/14 08:36:20;;;;;;;;;;;;;;;;;;4989148;28;90162;-76
2024/02/14 08:38:45;;;;;;;;;;;;;;;;;;4988745;28;89240;-75
2024/02/14 08:41:12;;;;;;;;;;;;;;;;;;4989335;28;89626;-77
2024/02/14 08:43:37;;;;;;;;;;;;;;;;;;4988894;28;89161;-77
2024/02/14 08:46:02;;;;;;;;;;;;;;;;;;4989924;28;89358;-75
2024/02/14 08:48:29;;;;;;;;;;;;;;;;;;4986557;28;89668;-75
2024/02/14 08:50:54;;;;;;;;;;;;;;;;;;4987778;28;89731;-77
2024/02/14 08:53:20;;;;;;;;;;;;;;;;;;4988778;28;89089;-76
2024/02/14 08:55:46;;;;;;;;;;;;;;;;;;4991753;28;89540;-76
2024/02/14 08:58:11;;;;;;;;;;;;;;;;;;4988121;28;89430;-76
2024/02/14 09:00:36;;;;;;;;;;;;;;;;;;4990005;28;89340;-76
2024/02/14 09:03:05;;;;;;;;;;;;;;;;;;4987723;28;91869;-76
2024/02/14 09:05:30;;;;;;;;;;;;;;;;;;4988586;28;89392;-76
2024/02/14 09:07:56;;;;;;;;;;;;;;;;;;4988719;28;89659;-76
2024/02/14 09:10:21;;;;;;;;;;;;;;;;;;4991135;28;89536;-75
2024/02/14 09:12:47;;;;;;;;;;;;;;;;;;4988871;28;89914;-75
2024/02/14 09:15:12;;;;;;;;;;;;;;;;;;4988523;28;89609;-75
2024/02/14 09:17:40;;;;;;;;;;;;;;;;;;4991706;28;89602;-76
2024/02/14 09:20:07;;;;;;;;;;;;;;;;;;4988621;28;90731;-75
2024/02/14 09:22:34;;;;;;;;;;;;;;;;;;4988085;28;90463;-77
2024/02/14 09:24:59;;;;;;;;;;;;;;;;;;4988661;28;90247;-76
2024/02/14 09:27:25;;;;;;;;;;;;;;;;;;4988737;28;90671;-76
2024/02/14 09:29:50;;;;;;;;;;;;;;;;;;5020797;28;90416;-75
2024/02/14 09:32:15;;;;;;;;;;;;;;;;;;4988688;28;89550;-77
2024/02/14 09:34:40;;;;;;;;;;;;;;;;;;4988694;28;90754;-76
2024/02/14 09:37:06;;;;;;;;;;;;;;;;;;4988449;28;89668;-76
2024/02/14 09:39:32;;;;;;;;;;;;;;;;;;4991537;28;90128;-75
2024/02/14 09:42:02;;;;;;;;;;;;;;;;;;4988594;28;89307;-75
2024/02/14 09:44:31;;;;;;;;;;;;;;;;;;4989960;28;89060;-75
2024/02/14 09:46:56;;;;;;;;;;;;;;;;;;4989226;28;88936;-76
2024/02/14 09:49:22;;;;;;;;;;;;;;;;;;4988696;28;89056;-74
2024/02/14 09:51:49;;;;;;;;;;;;;;;;;;4988595;28;89475;-75
2024/02/14 09:54:14;;;;;;;;;;;;;;;;;;5021352;28;92847;-75
2024/02/14 09:56:40;;;;;;;;;;;;;;;;;;4989221;28;89368;-74
2024/02/14 09:59:06;;;;;;;;;;;;;;;;;;4991041;28;89885;-74
2024/02/14 10:01:31;;;;;;;;;;;;;;;;;;4987489;28;89221;-76
2024/02/14 10:03:56;;;;;;;;;;;;;;;;;;4988618;28;89081;-74
2024/02/14 10:06:22;;;;;;;;;;;;;;;;;;4985862;28;89650;-76
2024/02/14 10:08:48;;;;;;;;;;;;;;;;;;4987584;28;89185;-76
2024/02/14 10:11:14;;;;;;;;;;;;;;;;;;4988127;28;90421;-75
2024/02/14 10:13:40;;;;;;;;;;;;;;;;;;4988090;28;89668;-76
2024/02/14 10:16:07;;;;;;;;;;;;;;;;;;4986322;28;91891;-75
2024/02/14 10:18:33;;;;;;;;;;;;;;;;;;4987292;28;89563;-76
2024/02/14 10:20:58;;;;;;;;;;;;;;;;;;4990714;28;89553;-78
2024/02/14 10:23:23;;;;;;;;;;;;;;;;;;4987166;28;89115;-75
2024/02/14 10:25:50;;;;;;;;;;;;;;;;;;4988255;28;89546;-76
2024/02/14 10:28:16;;;;;;;;;;;;;;;;;;4988144;28;89412;-75
2024/02/14 10:30:45;;;;;;;;;;;;;;;;;;4986544;28;89696;-76
2024/02/14 10:33:10;;;;;;;;;;;;;;;;;;4987913;28;90360;-75
2024/02/14 10:35:36;;;;;;;;;;;;;;;;;;4987890;28;89807;-75
2024/02/14 10:38:02;;;;;;;;;;;;;;;;;;4995288;28;89798;-75
2024/02/14 10:40:28;;;;;;;;;;;;;;;;;;4993194;28;89670;-75
2024/02/14 10:42:54;;;;;;;;;;;;;;;;;;4990634;28;89710;-75
2024/02/14 10:45:20;;;;;;;;;;;;;;;;;;4987528;28;89421;-76
2024/02/14 10:47:48;;;;;;;;;;;;;;;;;;4987040;28;89716;-78
2024/02/14 10:50:14;;;;;;;;;;;;;;;;;;4988946;28;89712;-74
2024/02/14 10:52:40;;;;;;;;;;;;;;;;;;4991710;28;90316;-76
2024/02/14 10:55:06;;;;;;;;;;;;;;;;;;4989644;28;89432;-77
2024/02/14 10:57:34;;;;;;;;;;;;;;;;;;4987635;28;89271;-76
2024/02/14 11:00:01;;;;;;;;;;;;;;;;;;4993777;28;90731;-76
2024/02/14 11:02:30;;;;;;;;;;;;;;;;;;4991070;28;90018;-76
2024/02/14 11:04:56;;;;;;;;;;;;;;;;;;4990684;28;89112;-77
2024/02/14 11:07:22;;;;;;;;;;;;;;;;;;4987559;28;90665;-77
2024/02/14 11:09:48;;;;;;;;;;;;;;;;;;4991338;28;89448;-81
2024/02/14 11:12:14;;;;;;;;;;;;;;;;;;4987647;28;89867;-77
2024/02/14 11:14:42;;;;;;;;;;;;;;;;;;4986460;28;90181;-77
2024/02/14 11:17:12;;;;;;;;;;;;;;;;;;4987674;28;89065;-77
2024/02/14 11:19:37;;;;;;;;;;;;;;;;;;4997092;28;89576;-75
2024/02/14 11:22:19;;;;;;;;;;;;;;;;;;4990529;28;89048;-76
2024/02/14 11:24:48;;;;;;;;;;;;;;;;;;4989964;28;89099;-75
2024/02/14 11:27:13;;;;;;;;;;;;;;;;;;4992375;28;89465;-75
2024/02/14 11:29:42;;;;;;;;;;;;;;;;;;4989836;28;89680;-74
2024/02/14 11:32:09;;;;;;;;;;;;;;;;;;5020577;28;89781;-75
2024/02/14 11:34:34;;;;;;;;;;;;;;;;;;4989404;28;89615;-74
2024/02/14 11:37:02;;;;;;;;;;;;;;;;;;4990398;28;91782;-75
2024/02/14 11:39:28;;;;;;;;;;;;;;;;;;4975006;27;89221;-74
2024/02/14 11:41:53;;;;;;;;;;;;;;;;;;5001371;28;90546;-74
2024/02/14 11:44:25;;;;;;;;;;;;;;;;;;4978930;28;89020;-75
2024/02/14 11:46:51;;;;;;;;;;;;;;;;;;4979808;28;89940;-74
2024/02/14 11:49:16;;;;;;;;;;;;;;;;;;4981099;28;91796;-74
2024/02/14 11:51:42;;;;;;;;;;;;;;;;;;4980611;28;89433;-74
2024/02/14 11:54:07;;;;;;;;;;;;;;;;;;4968248;28;89894;-74
2024/02/14 11:56:39;;;;;;;;;;;;;;;;;;4999963;28;89237;-74
2024/02/14 11:59:05;;;;;;;;;;;;;;;;;;4964696;28;90995;-74
2024/02/14 12:01:34;;;;;;;;;;;;;;;;;;4968142;28;89969;-75
2024/02/14 12:04:09;;;;;;;;;;;;;;;;;;4968388;28;90192;-74
2024/02/14 12:06:35;;;;;;;;;;;;;;;;;;4966869;28;91156;-74
2024/02/14 12:09:04;;;;;;;;;;;;;;;;;;4971278;28;89985;-74
2024/02/14 12:11:30;;;;;;;;;;;;;;;;;;4998378;28;92450;-74
2024/02/14 12:13:56;;;;;;;;;;;;;;;;;;4968846;28;90153;-73
2024/02/14 12:16:21;;;;;;;;;;;;;;;;;;4969818;28;89444;-74
2024/02/14 12:18:47;;;;;;;;;;;;;;;;;;4966294;28;89884;-74
2024/02/14 12:21:12;;;;;;;;;;;;;;;;;;4966524;28;89920;-74
2024/02/14 12:23:38;;;;;;;;;;;;;;;;;;4967122;28;89217;-75
2024/02/14 12:26:04;;;;;;;;;;;;;;;;;;4967804;28;90968;-74
2024/02/14 12:28:31;;;;;;;;;;;;;;;;;;4968662;28;89644;-74
2024/02/14 12:30:56;;;;;;;;;;;;;;;;;;4972197;28;89345;-74
2024/02/14 12:34:05;;;;;;;;;;;;;;;;;;5053965;27;82839;-75
2024/02/14 12:36:31;;;;;;;;;;;;;;;;;;5044195;27;90346;-75
2024/02/14 12:38:56;;;;;;;;;;;;;;;;;;5076052;27;92233;-74
2024/02/14 12:41:23;;;;;;;;;;;;;;;;;;5042430;27;89710;-75
2024/02/14 12:43:49;;;;;;;;;;;;;;;;;;5043050;27;90612;-74
2024/02/14 12:46:14;;;;;;;;;;;;;;;;;;5042283;27;89687;-74
2024/02/14 12:48:39;;;;;;;;;;;;;;;;;;5076482;27;89742;-75
2024/02/14 12:51:04;;;;;;;;;;;;;;;;;;5044704;27;89734;-75
2024/02/14 12:53:30;;;;;;;;;;;;;;;;;;5047859;27;90154;-74
2024/02/14 12:55:55;;;;;;;;;;;;;;;;;;5045021;27;90446;-74
2024/02/14 12:58:20;;;;;;;;;;;;;;;;;;5044049;27;90480;-74
2024/02/14 13:00:47;;;;;;;;;;;;;;;;;;5044459;27;89397;-75
2024/02/14 13:03:12;;;;;;;;;;;;;;;;;;5046215;27;89487;-74
2024/02/14 13:05:40;;;;;;;;;;;;;;;;;;5044690;27;89472;-74
2024/02/14 13:08:05;;;;;;;;;;;;;;;;;;5045415;27;89832;-74
2024/02/14 13:10:31;;;;;;;;;;;;;;;;;;5045255;27;90709;-75
2024/02/14 13:12:56;;;;;;;;;;;;;;;;;;5044176;27;90477;-75
2024/02/14 13:15:22;;;;;;;;;;;;;;;;;;5047211;27;89050;-75
2024/02/14 13:17:47;;;;;;;;;;;;;;;;;;5044469;27;89753;-74
2024/02/14 13:20:14;;;;;;;;;;;;;;;;;;5044613;27;89642;-74
2024/02/14 13:22:40;;;;;;;;;;;;;;;;;;5044405;27;90729;-75
2024/02/14 13:25:05;;;;;;;;;;;;;;;;;;5044315;27;90452;-74
2024/02/14 13:27:34;;;;;;;;;;;;;;;;;;5044058;27;89579;-75
2024/02/14 13:29:59;;;;;;;;;;;;;;;;;;5044281;27;90099;-75
2024/02/14 13:32:24;;;;;;;;;;;;;;;;;;5043909;27;90827;-74
2024/02/14 13:34:49;;;;;;;;;;;;;;;;;;5044614;27;89353;-74
2024/02/14 13:37:15;;;;;;;;;;;;;;;;;;5046470;27;89721;-74
2024/02/14 13:39:41;;;;;;;;;;;;;;;;;;5043541;27;89055;-74
2024/02/14 13:42:07;;;;;;;;;;;;;;;;;;5043112;27;89560;-74
2024/02/14 13:44:33;;;;;;;;;;;;;;;;;;5034418;27;89209;-74
2024/02/14 13:46:58;;;;;;;;;;;;;;;;;;5030878;27;89390;-74
2024/02/14 13:49:23;;;;;;;;;;;;;;;;;;5030495;28;89546;-74
2024/02/14 13:51:51;;;;;;;;;;;;;;;;;;5030238;28;89204;-74
2024/02/14 13:54:16;;;;;;;;;;;;;;;;;;5030865;27;89470;-74
2024/02/14 13:56:42;;;;;;;;;;;;;;;;;;5030350;28;90912;-74
2024/02/14 13:59:07;;;;;;;;;;;;;;;;;;5033552;28;89207;-74
2024/02/14 14:01:32;;;;;;;;;;;;;;;;;;5034590;27;88995;-74
2024/02/14 14:03:58;;;;;;;;;;;;;;;;;;5029477;27;89564;-74
2024/02/14 14:06:24;;;;;;;;;;;;;;;;;;5029993;27;89044;-75
2024/02/14 14:08:49;;;;;;;;;;;;;;;;;;5029868;27;90191;-74
2024/02/14 14:11:14;;;;;;;;;;;;;;;;;;5029786;27;89718;-74
2024/02/14 14:13:39;;;;;;;;;;;;;;;;;;5029692;28;89184;-74
2024/02/14 14:16:05;;;;;;;;;;;;;;;;;;5030206;28;89531;-74
2024/02/14 14:18:30;;;;;;;;;;;;;;;;;;5029600;28;89488;-74
2024/02/14 14:20:56;;;;;;;;;;;;;;;;;;5031814;28;90425;-74
2024/02/14 14:23:21;;;;;;;;;;;;;;;;;;5029435;28;89271;-74
2024/02/14 14:25:46;;;;;;;;;;;;;;;;;;5029259;27;89504;-73
2024/02/14 14:28:12;;;;;;;;;;;;;;;;;;5029761;27;89433;-74
2024/02/14 14:30:38;;;;;;;;;;;;;;;;;;5029292;28;90385;-74
2024/02/14 14:33:04;;;;;;;;;;;;;;;;;;5029238;27;89290;-74
2024/02/14 14:35:33;;;;;;;;;;;;;;;;;;5030431;27;90818;-74
2024/02/14 14:37:58;;;;;;;;;;;;;;;;;;5029671;27;90292;-74
2024/02/14 14:40:24;;;;;;;;;;;;;;;;;;5029559;27;89421;-74
2024/02/14 14:42:49;;;;;;;;;;;;;;;;;;5031947;27;89163;-74
2024/02/14 14:45:15;;;;;;;;;;;;;;;;;;5029911;27;89498;-74
2024/02/14 14:47:40;;;;;;;;;;;;;;;;;;5030045;28;90710;-74
2024/02/14 14:50:07;;;;;;;;;;;;;;;;;;5027525;28;90249;-74
2024/02/14 14:52:32;;;;;;;;;;;;;;;;;;5028295;27;89132;-77
2024/02/14 14:54:57;;;;;;;;;;;;;;;;;;5028262;28;89517;-75
2024/02/14 14:57:23;;;;;;;;;;;;;;;;;;5027214;28;89368;-78
2024/02/14 14:59:48;;;;;;;;;;;;;;;;;;5028734;28;89653;-74
2024/02/14 15:02:13;;;;;;;;;;;;;;;;;;5035950;27;89480;-75
2024/02/14 15:04:40;;;;;;;;;;;;;;;;;;5029166;28;89043;-75
2024/02/14 15:07:05;;;;;;;;;;;;;;;;;;5029048;28;89548;-74
2024/02/14 15:09:30;;;;;;;;;;;;;;;;;;5029017;28;89488;-76
2024/02/14 15:11:56;;;;;;;;;;;;;;;;;;5028605;27;89601;-75
2024/02/14 15:14:22;;;;;;;;;;;;;;;;;;5028951;27;89537;-73
2024/02/14 15:16:47;;;;;;;;;;;;;;;;;;5033696;27;89673;-74
2024/02/14 15:19:12;;;;;;;;;;;;;;;;;;5027013;28;89722;-74
2024/02/14 15:21:37;;;;;;;;;;;;;;;;;;5027529;27;91088;-74
2024/02/14 15:24:03;;;;;;;;;;;;;;;;;;5030624;27;89458;-74
2024/02/14 15:26:29;;;;;;;;;;;;;;;;;;5029430;27;89550;-72
2024/02/14 15:33:21;;;;;;;;;;;;;;;;;;5029441;27;89101;-75
2024/02/14 15:34:27;;;;;;;;;;;;;;;;;;5021740;28;89449;-74
2024/02/14 15:36:52;;;;;;;;;;;;;;;;;;5027959;27;89465;-74
2024/02/14 15:39:17;;;;;;;;;;;;;;;;;;5027799;28;89386;-74
2024/02/14 15:41:42;;;;;;;;;;;;;;;;;;5028168;28;89577;-75
2024/02/14 15:44:08;;;;;;;;;;;;;;;;;;5027738;28;91568;-72
2024/02/14 15:46:33;;;;;;;;;;;;;;;;;;5031725;27;89232;-72
2024/02/14 15:48:58;;;;;;;;;;;;;;;;;;5062266;27;90185;-72
2024/02/14 15:51:27;;;;;;;;;;;;;;;;;;5028719;28;89046;-74
2024/02/14 15:53:52;;;;;;;;;;;;;;;;;;5029171;28;89793;-72
2024/02/14 15:56:18;;;;;;;;;;;;;;;;;;5028619;28;90899;-74
2024/02/14 15:58:44;;;;;;;;;;;;;;;;;;5028520;27;89775;-74
2024/02/14 16:01:09;;;;;;;;;;;;;;;;;;5031453;27;90756;-74
2024/02/14 16:03:35;;;;;;;;;;;;;;;;;;5029938;27;89479;-75
2024/02/14 16:06:00;;;;;;;;;;;;;;;;;;5028775;28;89019;-74
2024/02/14 16:08:27;;;;;;;;;;;;;;;;;;5029800;28;89744;-71
2024/02/14 16:10:53;;;;;;;;;;;;;;;;;;5028715;27;89123;-74
2024/02/14 16:13:19;;;;;;;;;;;;;;;;;;5028528;27;90595;-74
2024/02/14 16:15:44;;;;;;;;;;;;;;;;;;5029894;27;90237;-74
2024/02/14 16:18:10;;;;;;;;;;;;;;;;;;5027427;27;89065;-74
2024/02/14 16:20:35;;;;;;;;;;;;;;;;;;5027652;28;89631;-74
2024/02/14 16:23:00;;;;;;;;;;;;;;;;;;5028256;28;89187;-74
2024/02/14 16:25:28;;;;;;;;;;;;;;;;;;5027456;28;91444;-74
2024/02/14 16:27:54;;;;;;;;;;;;;;;;;;5027783;28;90783;-74
2024/02/14 16:30:19;;;;;;;;;;;;;;;;;;5029095;28;90218;-74
2024/02/14 16:32:47;;;;;;;;;;;;;;;;;;5026415;28;89669;-74
2024/02/14 16:35:12;;;;;;;;;;;;;;;;;;5027217;27;90613;-74
2024/02/14 16:37:37;;;;;;;;;;;;;;;;;;5026942;27;89177;-74
2024/02/14 16:40:05;;;;;;;;;;;;;;;;;;5027205;27;90707;-74